Time,TemperatureF,DewpointF,PressureIn,WindDirection,WindDirectionDegrees,WindSpeedMPH,WindSpeedGustMPH,Humidity,HourlyPrecipIn,Conditions,Clouds,dailyrainin,SoftwareType,DateUTC
2013-02-20 00:14:00,16.3,13.0,29.86,SW,225,10.0,16.0,87,0.00,,,0.00,weatherlink.com 1.10,2013-02-20 05:14:00,
2013-02-20 00:29:00,16.3,13.0,29.86,West,261,9.0,19.0,87,0.00,,,0.00,weatherlink.com 1.10,2013-02-20 05:29:00,
2013-02-20 00:44:00,16.2,13.0,29.86,West,267,16.0,24.0,87,0.00,,,0.00,weatherlink.com 1.10,2013-02-20 05:44:00,
2013-02-20 00:59:00,16.1,13.0,29.86,SW,220,14.0,22.0,87,0.00,,,0.00,weatherlink.com 1.10,2013-02-20 05:59:00,
2013-02-20 01:14:00,16.1,13.0,29.86,SW,232,10.0,14.0,87,0.00,,,0.00,weatherlink.com 1.10,2013-02-20 06:14:00,
2013-02-20 01:29:00,15.9,13.0,29.87,SW,225,8.0,17.0,87,0.00,,,0.00,weatherlink.com 1.10,2013-02-20 06:29:00,
2013-02-20 01:44:00,15.6,12.0,29.87,SW,231,12.0,20.0,87,0.00,,,0.00,weatherlink.com 1.10,2013-02-20 06:44:00,
2013-02-20 01:59:00,15.5,12.0,29.87,SW,226,10.0,20.0,86,0.00,,,0.00,weatherlink.com 1.10,2013-02-20 06:59:00,
2013-02-20 02:14:00,15.2,12.0,29.88,SW,225,14.0,22.0,86,0.00,,,0.00,weatherlink.com 1.10,2013-02-20 07:14:00,
2013-02-20 02:29:00,15.0,12.0,29.88,SW,236,8.0,18.0,87,0.00,,,0.00,weatherlink.com 1.10,2013-02-20 07:29:00,
2013-02-20 02:44:00,14.6,11.0,29.88,SW,232,12.0,20.0,86,0.00,,,0.00,weatherlink.com 1.10,2013-02-20 07:44:00,
2013-02-20 02:59:00,14.4,11.0,29.88,SW,221,22.0,26.0,85,0.00,,,0.00,weatherlink.com 1.10,2013-02-20 07:59:00,
2013-02-20 03:14:00,14.2,11.0,29.88,SW,223,10.0,20.0,86,0.00,,,0.00,weatherlink.com 1.10,2013-02-20 08:14:00,
2013-02-20 03:30:00,14.2,11.0,29.89,SSW,201,9.0,20.0,85,0.00,,,0.00,weatherlink.com 1.10,2013-02-20 08:30:00,
2013-02-20 03:45:00,14.0,11.0,29.89,SW,223,8.0,22.0,86,0.00,,,0.00,weatherlink.com 1.10,2013-02-20 08:45:00,
2013-02-20 04:00:00,13.9,11.0,29.89,SSW,212,7.0,19.0,87,0.00,,,0.00,weatherlink.com 1.10,2013-02-20 09:00:00,
2013-02-20 04:15:00,13.8,11.0,29.90,SW,232,14.0,17.0,88,0.00,,,0.00,weatherlink.com 1.10,2013-02-20 09:15:00,
2013-02-20 04:30:00,13.8,11.0,29.90,WSW,244,9.0,18.0,89,0.00,,,0.00,weatherlink.com 1.10,2013-02-20 09:30:00,
2013-02-20 04:45:00,13.7,11.0,29.91,SW,221,13.0,18.0,89,0.00,,,0.00,weatherlink.com 1.10,2013-02-20 09:45:00,
2013-02-20 05:00:00,13.7,11.0,29.91,WSW,243,8.0,19.0,89,0.00,,,0.00,weatherlink.com 1.10,2013-02-20 10:00:00,
2013-02-20 05:15:00,13.6,11.0,29.92,SW,231,14.0,19.0,90,0.00,,,0.00,weatherlink.com 1.10,2013-02-20 10:15:00,
2013-02-20 05:30:00,13.6,11.0,29.92,SW,219,8.0,19.0,90,0.00,,,0.00,weatherlink.com 1.10,2013-02-20 10:30:00,
2013-02-20 05:45:00,13.6,11.0,29.93,SW,231,8.0,17.0,90,0.00,,,0.00,weatherlink.com 1.10,2013-02-20 10:45:00,
2013-02-20 06:00:00,13.6,11.0,29.93,WSW,254,10.0,15.0,90,0.00,,,0.00,weatherlink.com 1.10,2013-02-20 11:00:00,
2013-02-20 06:15:00,13.6,11.0,29.94,West,259,8.0,18.0,90,0.00,,,0.00,weatherlink.com 1.10,2013-02-20 11:15:00,
2013-02-20 06:30:00,13.7,11.0,29.94,SW,221,8.0,12.0,90,0.00,,,0.00,weatherlink.com 1.10,2013-02-20 11:30:00,
2013-02-20 06:45:00,13.7,11.0,29.94,SW,219,9.0,13.0,90,0.00,,,0.00,weatherlink.com 1.10,2013-02-20 11:45:00,
2013-02-20 07:01:00,13.8,11.0,29.95,WSW,255,8.0,17.0,90,0.00,,,0.00,weatherlink.com 1.10,2013-02-20 12:01:00,
2013-02-20 07:16:00,13.9,12.0,29.95,WSW,257,11.0,13.0,90,0.00,,,0.00,weatherlink.com 1.10,2013-02-20 12:16:00,
2013-02-20 07:31:00,13.9,12.0,29.96,SW,227,5.0,12.0,90,0.00,,,0.00,weatherlink.com 1.10,2013-02-20 12:31:00,
2013-02-20 07:46:00,14.1,12.0,29.97,WSW,238,5.0,14.0,90,0.00,,,0.00,weatherlink.com 1.10,2013-02-20 12:46:00,
2013-02-20 08:01:00,14.2,12.0,29.97,West,281,9.0,16.0,91,0.00,,,0.00,weatherlink.com 1.10,2013-02-20 13:01:00,
2013-02-20 08:16:00,14.3,12.0,29.97,SW,225,9.0,14.0,91,0.00,,,0.00,weatherlink.com 1.10,2013-02-20 13:16:00,
2013-02-20 08:31:00,14.6,13.0,29.98,WSW,250,7.0,13.0,91,0.00,,,0.00,weatherlink.com 1.10,2013-02-20 13:31:00,
2013-02-20 08:46:00,14.8,13.0,29.98,WSW,246,5.0,15.0,91,0.00,,,0.00,weatherlink.com 1.10,2013-02-20 13:46:00,
2013-02-20 09:01:00,15.0,13.0,29.98,WSW,250,10.0,15.0,90,0.00,,,0.00,weatherlink.com 1.10,2013-02-20 14:01:00,
2013-02-20 09:16:00,15.4,13.0,29.98,WSW,255,4.0,14.0,90,0.00,,,0.00,weatherlink.com 1.10,2013-02-20 14:16:00,
2013-02-20 09:31:00,15.5,13.0,29.99,West,259,3.0,13.0,90,0.00,,,0.00,weatherlink.com 1.10,2013-02-20 14:31:00,
2013-02-20 09:46:00,15.7,14.0,29.99,West,270,9.0,11.0,91,0.00,,,0.00,weatherlink.com 1.10,2013-02-20 14:46:00,
2013-02-20 10:01:00,15.4,13.0,30.00,WNW,295,8.0,17.0,91,0.00,,,0.00,weatherlink.com 1.10,2013-02-20 15:01:00,
2013-02-20 10:17:00,15.0,13.0,30.00,WNW,286,13.0,21.0,90,0.00,,,0.00,weatherlink.com 1.10,2013-02-20 15:17:00,
2013-02-20 10:32:00,14.8,12.0,30.02,West,280,14.0,25.0,90,0.00,,,0.00,weatherlink.com 1.10,2013-02-20 15:32:00,
2013-02-20 10:47:00,15.8,13.0,30.02,WNW,301,10.0,20.0,87,0.00,,,0.00,weatherlink.com 1.10,2013-02-20 15:47:00,
2013-02-20 11:02:00,15.7,11.0,30.03,NW,319,14.0,26.0,80,0.00,,,0.00,weatherlink.com 1.10,2013-02-20 16:02:00,
2013-02-20 11:17:00,15.9,9.0,30.04,West,277,15.0,24.0,74,0.00,,,0.00,weatherlink.com 1.10,2013-02-20 16:17:00,
2013-02-20 11:32:00,16.4,9.0,30.04,WNW,303,14.0,22.0,73,0.00,,,0.00,weatherlink.com 1.10,2013-02-20 16:32:00,
2013-02-20 11:49:00,16.4,9.0,30.04,West,281,12.0,20.0,74,0.00,,,0.00,weatherlink.com 1.10,2013-02-20 16:49:00,
2013-02-20 12:02:00,15.4,12.0,30.05,West,275,9.0,20.0,86,0.00,,,0.00,weatherlink.com 1.10,2013-02-20 17:02:00,
2013-02-20 12:17:00,16.2,12.0,30.05,West,259,14.0,18.0,84,0.00,,,0.00,weatherlink.com 1.10,2013-02-20 17:17:00,
2013-02-20 12:32:00,15.7,13.0,30.05,West,279,6.0,20.0,87,0.00,,,0.00,weatherlink.com 1.10,2013-02-20 17:32:00,
2013-02-20 12:48:00,15.9,11.0,30.05,West,273,15.0,23.0,81,0.00,,,0.00,weatherlink.com 1.10,2013-02-20 17:48:00,
2013-02-20 13:02:00,17.0,10.0,30.06,West,263,6.0,22.0,74,0.00,,,0.00,weatherlink.com 1.10,2013-02-20 18:02:00,
2013-02-20 13:17:00,16.4,10.0,30.07,NNW,346,13.0,23.0,75,0.00,,,0.00,weatherlink.com 1.10,2013-02-20 18:17:00,
2013-02-20 13:33:00,16.6,10.0,30.07,NW,314,16.0,20.0,74,0.00,,,0.00,weatherlink.com 1.10,2013-02-20 18:33:00,
2013-02-20 13:48:00,16.1,11.0,30.08,WNW,288,11.0,20.0,80,0.00,,,0.00,weatherlink.com 1.10,2013-02-20 18:48:00,
2013-02-20 14:03:00,16.5,10.0,30.09,West,269,19.0,19.0,74,0.00,,,0.00,weatherlink.com 1.10,2013-02-20 19:03:00,
2013-02-20 14:18:00,16.3,9.0,30.09,WNW,286,17.0,22.0,72,0.00,,,0.00,weatherlink.com 1.10,2013-02-20 19:18:00,
2013-02-20 14:33:00,16.4,9.0,30.10,West,271,10.0,24.0,74,0.00,,,0.00,weatherlink.com 1.10,2013-02-20 19:33:00,
2013-02-20 14:48:00,16.1,10.0,30.10,WNW,294,7.0,21.0,75,0.00,,,0.00,weatherlink.com 1.10,2013-02-20 19:48:00,
2013-02-20 15:03:00,16.0,11.0,30.11,West,273,7.0,20.0,79,0.00,,,0.00,weatherlink.com 1.10,2013-02-20 20:03:00,
2013-02-20 15:18:00,16.0,11.0,30.11,West,275,7.0,18.0,80,0.00,,,0.00,weatherlink.com 1.10,2013-02-20 20:18:00,
2013-02-20 15:34:00,16.2,11.0,30.11,WNW,284,6.0,22.0,78,0.00,,,0.00,weatherlink.com 1.10,2013-02-20 20:34:00,
2013-02-20 16:04:00,16.1,11.0,30.13,WNW,293,10.0,19.0,81,0.00,,,0.00,weatherlink.com 1.10,2013-02-20 21:04:00,
2013-02-20 16:18:00,15.9,12.0,30.13,West,268,5.0,16.0,83,0.00,,,0.00,weatherlink.com 1.10,2013-02-20 21:18:00,
2013-02-20 16:33:00,16.0,12.0,30.14,WNW,290,3.0,15.0,83,0.00,,,0.00,weatherlink.com 1.10,2013-02-20 21:33:00,
2013-02-20 16:48:00,16.3,11.0,30.14,West,280,11.0,14.0,80,0.00,,,0.00,weatherlink.com 1.10,2013-02-20 21:48:00,
2013-02-20 17:04:00,16.4,11.0,30.15,WSW,244,14.0,16.0,79,0.00,,,0.00,weatherlink.com 1.10,2013-02-20 22:04:00,
2013-02-20 17:19:00,16.4,11.0,30.16,WNW,292,10.0,17.0,78,0.00,,,0.00,weatherlink.com 1.10,2013-02-20 22:19:00,
2013-02-20 17:34:00,16.5,11.0,30.16,WNW,288,16.0,17.0,78,0.00,,,0.00,weatherlink.com 1.10,2013-02-20 22:34:00,
2013-02-20 17:49:00,16.5,11.0,30.16,WSW,248,8.0,18.0,78,0.00,,,0.00,weatherlink.com 1.10,2013-02-20 22:49:00,
2013-02-20 18:04:00,16.2,12.0,30.18,WSW,253,7.0,20.0,83,0.00,,,0.00,weatherlink.com 1.10,2013-02-20 23:04:00,
2013-02-20 18:19:00,15.8,13.0,30.19,WSW,258,9.0,12.0,87,0.00,,,0.00,weatherlink.com 1.10,2013-02-20 23:19:00,
2013-02-20 18:34:00,15.8,13.0,30.19,WSW,238,7.0,12.0,87,0.00,,,0.00,weatherlink.com 1.10,2013-02-20 23:34:00,
2013-02-20 18:49:00,15.8,13.0,30.19,WNW,282,6.0,10.0,88,0.00,,,0.00,weatherlink.com 1.10,2013-02-20 23:49:00,
2013-02-20 19:04:00,15.8,13.0,30.19,West,261,9.0,12.0,88,0.00,,,0.00,weatherlink.com 1.10,2013-02-21 00:04:00,
2013-02-20 19:19:00,15.9,13.0,30.18,WSW,257,7.0,13.0,88,0.00,,,0.00,weatherlink.com 1.10,2013-02-21 00:19:00,
2013-02-20 19:35:00,15.9,13.0,30.18,West,272,5.0,9.0,89,0.00,,,0.00,weatherlink.com 1.10,2013-02-21 00:35:00,
2013-02-20 19:49:00,15.8,13.0,30.18,West,277,6.0,9.0,90,0.00,,,0.00,weatherlink.com 1.10,2013-02-21 00:49:00,
2013-02-20 20:04:00,15.9,14.0,30.18,WSW,238,10.0,10.0,90,0.00,,,0.00,weatherlink.com 1.10,2013-02-21 01:04:00,
2013-02-20 20:20:00,16.1,14.0,30.18,West,270,4.0,9.0,89,0.00,,,0.00,weatherlink.com 1.10,2013-02-21 01:20:00,
2013-02-20 20:35:00,16.0,14.0,30.19,West,263,4.0,9.0,90,0.00,,,0.00,weatherlink.com 1.10,2013-02-21 01:35:00,
2013-02-20 20:50:00,15.9,14.0,30.19,WSW,241,5.0,9.0,90,0.00,,,0.00,weatherlink.com 1.10,2013-02-21 01:50:00,
2013-02-20 21:05:00,16.0,14.0,30.18,WSW,249,4.0,8.0,90,0.00,,,0.00,weatherlink.com 1.10,2013-02-21 02:05:00,
2013-02-20 21:20:00,16.0,14.0,30.19,WNW,290,1.0,8.0,90,0.00,,,0.00,weatherlink.com 1.10,2013-02-21 02:20:00,
2013-02-20 21:35:00,16.1,14.0,30.19,WNW,284,5.0,7.0,90,0.00,,,0.00,weatherlink.com 1.10,2013-02-21 02:35:00,
2013-02-20 21:50:00,16.1,14.0,30.19,WSW,254,4.0,8.0,90,0.00,,,0.00,weatherlink.com 1.10,2013-02-21 02:50:00,
2013-02-20 22:05:00,16.2,14.0,30.18,West,277,5.0,7.0,89,0.00,,,0.00,weatherlink.com 1.10,2013-02-21 03:05:00,
2013-02-20 22:20:00,16.1,14.0,30.18,WSW,252,5.0,9.0,89,0.00,,,0.00,weatherlink.com 1.10,2013-02-21 03:20:00,
2013-02-20 22:35:00,16.1,14.0,30.18,West,261,6.0,9.0,89,0.00,,,0.00,weatherlink.com 1.10,2013-02-21 03:35:00,
2013-02-20 22:50:00,16.1,14.0,30.18,WSW,251,4.0,10.0,89,0.00,,,0.00,weatherlink.com 1.10,2013-02-21 03:50:00,
2013-02-20 23:05:00,16.1,14.0,30.18,West,267,3.0,9.0,89,0.00,,,0.00,weatherlink.com 1.10,2013-02-21 04:05:00,
2013-02-20 23:20:00,16.1,14.0,30.18,WSW,248,5.0,9.0,89,0.00,,,0.00,weatherlink.com 1.10,2013-02-21 04:20:00,
2013-02-20 23:36:00,16.0,14.0,30.18,WSW,249,5.0,9.0,90,0.00,,,0.00,weatherlink.com 1.10,2013-02-21 04:36:00,
2013-02-20 23:51:00,15.9,14.0,30.18,WSW,247,4.0,8.0,90,0.00,,,0.00,weatherlink.com 1.10,2013-02-21 04:51:00,